Time;durP1;ratioP1;P1;durP2;ratioP2;P2;SDS_P1;SDS_P2;PMS_P1;PMS_P2;Temp;Humidity;BMP_temperature;BMP_pressure;BME280_temperature;BME280_humidity;BME280_pressure;Samples;Min_cycle;Max_cycle;Signal;HPM_P1;HPM_P2
2023/12/13 00:04:20;;;;;;;1.70;0.95;;;;;;;6.93;100.00;99544.44;4960614;29;20102;-91
2023/12/13 00:10:24;;;;;;;2.13;1.40;;;;;;;6.93;100.00;99544.44;4959211;29;20131;-93
2023/12/13 00:12:49;;;;;;;1.58;1.42;;;;;;;6.96;100.00;99551.25;4956747;29;20023;-93
2023/12/13 00:15:21;;;;;;;1.83;1.10;;;;;;;7.01;100.00;99562.31;4960262;29;20093;-93
2023/12/13 00:18:20;;;;;;;1.25;1.15;;;;;;;7.04;100.00;99572.56;4959941;29;20031;-93
2023/12/13 00:20:55;;;;;;;1.35;1.25;;;;;;;6.95;100.00;99552.13;4959916;29;20058;-93
2023/12/13 00:24:16;;;;;;;1.27;1.00;;;;;;;7.04;100.00;99561.41;4960183;29;20082;-93
2023/12/13 00:27:11;;;;;;;1.02;0.98;;;;;;;6.94;100.00;99545.25;4960112;29;20094;-93
2023/12/13 00:29:41;;;;;;;1.33;1.17;;;;;;;7.00;100.00;99552.88;4959344;29;20027;-93
2023/12/13 00:34:55;;;;;;;2.15;1.00;;;;;;;7.01;100.00;99549.44;4959139;29;20046;-93
2023/12/13 00:37:36;;;;;;;1.20;0.80;;;;;;;7.07;100.00;99562.19;4958514;29;20483;-93
2023/12/13 00:40:11;;;;;;;0.93;0.80;;;;;;;7.08;100.00;99566.47;4958376;29;20093;-94
2023/12/13 00:54:32;;;;;;;1.73;1.38;;;;;;;7.06;100.00;99555.31;4978813;28;20085;-92
2023/12/13 01:00:33;;;;;;;1.40;1.25;;;;;;;7.02;100.00;99558.00;4977453;28;20783;-92
2023/12/13 01:12:16;;;;;;;2.65;1.20;;;;;;;6.99;100.00;99551.19;5174009;23;19921;-94
2023/12/13 01:14:42;;;;;;;1.30;1.20;;;;;;;7.01;100.00;99553.72;4997980;28;20029;-93
2023/12/13 01:17:11;;;;;;;1.33;1.23;;;;;;;6.99;100.00;99552.91;4997047;28;20022;-93
2023/12/13 01:19:36;;;;;;;0.90;0.90;;;;;;;7.00;100.00;99552.03;4996332;28;20026;-94
2023/12/13 01:22:02;;;;;;;1.13;1.03;;;;;;;6.98;100.00;99553.81;4996708;28;20370;-93
2023/12/13 01:24:27;;;;;;;3.33;1.23;;;;;;;6.91;100.00;99535.88;4996790;28;20026;-93
2023/12/13 01:27:36;;;;;;;2.30;1.20;;;;;;;7.01;100.00;99556.28;4996093;28;20054;-93
2023/12/13 01:30:03;;;;;;;1.67;1.30;;;;;;;6.89;100.00;99529.88;4996130;28;20038;-93
2023/12/13 01:32:40;;;;;;;1.08;0.98;;;;;;;6.87;100.00;99525.66;5009835;23;20051;-92
2023/12/13 01:35:06;;;;;;;1.30;1.10;;;;;;;7.02;100.00;99547.69;4979791;23;20050;-91
2023/12/13 01:37:32;;;;;;;1.00;0.97;;;;;;;7.02;100.00;99555.41;4975227;28;20181;-93
2023/12/13 01:40:15;;;;;;;3.97;1.47;;;;;;;7.00;100.00;99542.56;4976886;28;20034;-92
2023/12/13 01:42:46;;;;;;;1.52;1.40;;;;;;;6.99;100.00;99543.44;4976371;28;20023;-93
2023/12/13 01:45:27;;;;;;;1.58;1.20;;;;;;;6.92;100.00;99540.16;4976812;28;20026;-92
2023/12/13 01:47:55;;;;;;;3.25;1.30;;;;;;;7.05;100.00;99553.63;4976224;23;20055;-93
2023/12/13 01:50:24;;;;;;;1.48;1.35;;;;;;;6.97;100.00;99544.38;4957315;29;20024;-93
2023/12/13 01:53:11;;;;;;;2.80;1.50;;;;;;;7.03;100.00;99562.28;4956859;29;20468;-93
2023/12/13 01:55:53;;;;;;;1.65;1.20;;;;;;;7.04;100.00;99563.97;4937775;29;20118;-93
2023/12/13 02:01:17;;;;;;;1.42;1.30;;;;;;;6.97;100.00;99550.38;4982286;23;20143;-93
2023/12/13 02:03:43;;;;;;;2.40;1.40;;;;;;;7.06;100.00;99564.81;4937847;29;20063;-93
2023/12/13 02:06:12;;;;;;;1.33;1.23;;;;;;;7.05;100.00;99557.94;4937437;29;20039;-94
2023/12/13 02:09:28;;;;;;;1.08;1.00;;;;;;;7.03;100.00;99554.53;4937370;29;20120;-93
2023/12/13 02:11:56;;;;;;;1.20;0.90;;;;;;;6.93;100.00;99538.41;4957043;29;20051;-94
2023/12/13 02:14:41;;;;;;;1.10;0.90;;;;;;;6.97;100.00;99552.09;4956873;29;20034;-93
2023/12/13 02:17:06;;;;;;;3.53;1.30;;;;;;;6.95;100.00;99541.81;4956420;29;20031;-93
2023/12/13 02:19:51;;;;;;;1.20;1.10;;;;;;;7.06;100.00;99563.06;4956481;29;20046;-94
2023/12/13 02:22:31;;;;;;;1.60;1.40;;;;;;;7.07;100.00;99557.03;4956522;29;20063;-92
2023/12/13 02:25:46;;;;;;;1.50;1.35;;;;;;;7.09;100.00;99557.00;4956696;29;20035;-93
2023/12/13 02:28:25;;;;;;;1.17;1.05;;;;;;;7.01;100.00;99541.69;4956259;29;20491;-94
2023/12/13 02:31:07;;;;;;;1.38;1.23;;;;;;;6.97;100.00;99523.72;4957173;29;20031;-93
2023/12/13 02:33:44;;;;;;;1.20;1.00;;;;;;;7.02;100.00;99534.78;4955836;29;20023;-93
2023/12/13 02:36:24;;;;;;;1.70;1.10;;;;;;;7.01;100.00;99535.66;4956540;29;20428;-93
2023/12/13 02:39:08;;;;;;;2.00;1.40;;;;;;;7.00;100.00;99537.41;4956242;29;20082;-93
2023/12/13 02:41:50;;;;;;;1.05;0.88;;;;;;;7.00;100.00;99532.25;4956100;29;20446;-93
2023/12/13 02:44:30;;;;;;;1.10;1.02;;;;;;;6.97;100.00;99519.41;4956667;29;20035;-91
2023/12/13 02:47:11;;;;;;;1.48;1.00;;;;;;;7.03;100.00;99523.59;4956203;29;20311;-93
2023/12/13 02:49:45;;;;;;;1.13;1.00;;;;;;;6.99;100.00;99520.22;4956495;29;20031;-92
2023/12/13 02:52:38;;;;;;;1.30;1.20;;;;;;;7.12;100.00;99536.28;4955968;29;20039;-93
2023/12/13 02:55:13;;;;;;;1.35;1.08;;;;;;;7.08;100.00;99532.09;4978079;23;21294;-91
2023/12/13 02:57:42;;;;;;;2.33;1.50;;;;;;;7.05;100.00;99532.97;5014195;23;20022;-93
2023/12/13 03:00:22;;;;;;;2.80;1.20;;;;;;;7.13;100.00;99537.97;4937432;29;20031;-93
2023/12/13 03:02:49;;;;;;;1.63;1.52;;;;;;;7.03;100.00;99514.13;4936470;29;20032;-94
2023/12/13 03:05:14;;;;;;;1.75;1.13;;;;;;;7.08;100.00;99521.78;4936852;29;20094;-94
2023/12/13 03:08:00;;;;;;;1.57;0.87;;;;;;;7.04;100.00;99515.81;4937016;29;20445;-93
2023/12/13 03:10:51;;;;;;;2.00;1.10;;;;;;;7.06;100.00;99513.22;4941466;29;20016;-93
2023/12/13 03:16:52;;;;;;;2.97;1.50;;;;;;;7.18;100.00;99531.00;4882969;29;20041;-93
2023/12/13 03:19:43;;;;;;;3.75;1.60;;;;;;;7.19;100.00;99524.97;4883424;29;20025;-93
2023/12/13 03:22:26;;;;;;;1.30;1.20;;;;;;;7.11;100.00;99519.97;4883618;29;20040;-94
2023/12/13 03:25:00;;;;;;;1.85;0.93;;;;;;;7.18;100.00;99530.13;4853654;29;20091;-93
2023/12/13 03:27:42;;;;;;;1.20;1.02;;;;;;;7.04;100.00;99499.50;4863905;29;20065;-93
2023/12/13 03:30:08;;;;;;;1.75;1.00;;;;;;;7.13;100.00;99516.50;4863348;29;20387;-93
2023/12/13 03:36:18;;;;;;;0.60;0.55;;;;;;;7.18;100.00;99524.97;4863891;29;20077;-94
2023/12/13 03:39:01;;;;;;;1.33;0.95;;;;;;;7.07;100.00;99505.41;4863362;29;20101;-93
2023/12/13 03:41:39;;;;;;;1.58;1.17;;;;;;;7.19;100.00;99527.53;4863671;29;20484;-93
2023/12/13 03:44:45;;;;;;;1.80;0.88;;;;;;;7.20;100.00;99516.34;4897059;29;20036;-93
2023/12/13 03:47:19;;;;;;;;;;;;;;;7.20;100.00;99518.91;4922046;29;20044;-92
2023/12/13 03:49:54;;;;;;;1.23;0.77;;;;;;;7.11;100.00;99498.47;4921520;29;19915;-92
2023/12/13 03:52:19;;;;;;;1.65;1.20;;;;;;;7.14;100.00;99498.41;4920727;29;20028;-92
2023/12/13 03:54:53;;;;;;;3.00;1.60;;;;;;;7.12;100.00;99502.72;4920819;29;20031;-92
2023/12/13 03:57:36;;;;;;;3.13;1.20;;;;;;;7.06;100.00;99490.81;4937574;29;20035;-92
2023/12/13 04:00:02;;;;;;;2.63;1.27;;;;;;;7.09;100.00;99493.34;4944222;29;20099;-93
2023/12/13 04:02:34;;;;;;;2.57;1.47;;;;;;;7.07;100.00;99484.78;4940260;29;20039;-92
2023/12/13 04:05:11;;;;;;;4.60;1.83;;;;;;;7.07;100.00;99489.94;4940166;29;20366;-91
2023/12/13 04:11:25;;;;;;;3.72;1.60;;;;;;;7.15;100.00;99500.09;4922327;29;20456;-92
2023/12/13 04:14:02;;;;;;;2.35;1.27;;;;;;;7.09;100.00;99492.50;4921903;29;20107;-93
2023/12/13 04:16:46;;;;;;;3.00;1.33;;;;;;;7.11;100.00;99501.03;4921884;29;20449;-93
2023/12/13 04:19:17;;;;;;;4.38;1.35;;;;;;;7.06;100.00;99485.66;4921306;29;20028;-92
2023/12/13 04:21:54;;;;;;;4.05;1.60;;;;;;;7.06;100.00;99487.41;4931246;29;20027;-91
2023/12/13 04:24:19;;;;;;;2.67;1.40;;;;;;;7.06;100.00;99490.81;4939682;29;20027;-92
2023/12/13 04:26:59;;;;;;;1.10;1.10;;;;;;;7.11;100.00;99501.03;4939122;29;20078;-91
2023/12/13 04:29:24;;;;;;;2.45;1.30;;;;;;;7.07;100.00;99489.09;4958855;29;20024;-92
2023/12/13 04:31:51;;;;;;;1.83;1.30;;;;;;;7.09;100.00;99490.75;4958318;29;20024;-91
2023/12/13 04:34:25;;;;;;;1.80;1.20;;;;;;;7.09;100.00;99484.78;4958955;29;20399;-91
2023/12/13 04:36:50;;;;;;;3.17;1.20;;;;;;;7.09;100.00;99485.59;4958358;29;20028;-91
2023/12/13 04:39:18;;;;;;;3.20;1.10;;;;;;;7.18;100.00;99496.59;4958632;29;20428;-91
2023/12/13 04:41:53;;;;;;;;;;;;;;;;;;;;;
2023/12/13 04:44:20;;;;;;;3.60;1.27;;;;;;;7.19;100.00;99494.00;4937609;29;20043;-91
2023/12/13 04:47:00;;;;;;;1.63;1.10;;;;;;;7.18;100.00;99494.88;4937312;29;20284;-91
2023/12/13 04:49:43;;;;;;;2.67;1.33;;;;;;;7.15;100.00;99489.78;4937398;29;20070;-91
2023/12/13 04:52:13;;;;;;;1.20;1.10;;;;;;;7.12;100.00;99482.09;4938151;29;20524;-91
2023/12/13 04:54:38;;;;;;;1.13;1.00;;;;;;;7.16;100.00;99485.44;4938150;29;20039;-91
2023/12/13 04:57:21;;;;;;;1.67;1.13;;;;;;;7.19;100.00;99486.25;4937396;29;20388;-92
2023/12/13 04:59:46;;;;;;;1.05;0.95;;;;;;;7.22;100.00;99493.06;4936343;29;20139;-92
2023/12/13 05:02:34;;;;;;;2.67;1.07;;;;;;;7.26;100.00;99497.28;4936890;29;20032;-92
2023/12/13 05:04:59;;;;;;;2.67;0.98;;;;;;;7.16;100.00;99481.16;4937090;29;20054;-93
2023/12/13 05:07:43;;;;;;;2.37;1.07;;;;;;;7.30;100.00;99503.22;4937224;29;20067;-90
2023/12/13 05:10:43;;;;;;;1.48;1.20;;;;;;;7.31;100.00;99492.00;4937776;29;20036;-92
2023/12/13 05:16:41;;;;;;;1.58;0.90;;;;;;;7.32;100.00;99491.13;4938709;29;20128;-92
2023/12/13 05:19:31;;;;;;;0.77;0.70;;;;;;;7.32;100.00;99486.81;4937541;29;20098;-93
2023/12/13 05:22:06;;;;;;;0.93;0.70;;;;;;;7.22;100.00;99470.69;4950645;29;20503;-91
2023/12/13 05:24:31;;;;;;;0.75;0.70;;;;;;;7.25;100.00;99475.78;4957296;29;20033;-92
2023/12/13 05:27:10;;;;;;;1.70;0.63;;;;;;;7.24;100.00;99475.81;4957435;29;20027;-92
2023/12/13 05:29:42;;;;;;;4.60;1.30;;;;;;;7.23;100.00;99466.38;4957298;29;20050;-92
2023/12/13 05:32:10;;;;;;;1.63;1.17;;;;;;;7.22;100.00;99464.69;4956908;28;20551;-92
2023/12/13 05:35:10;;;;;;;1.30;1.20;;;;;;;7.36;100.00;99482.41;4957509;29;20019;-92
2023/12/13 05:37:50;;;;;;;0.93;0.85;;;;;;;7.25;100.00;99467.19;4957150;29;20019;-92
2023/12/13 05:40:25;;;;;;;1.25;1.15;;;;;;;7.23;100.00;99458.63;4957137;29;20027;-93
2023/12/13 05:42:57;;;;;;;1.60;0.93;;;;;;;7.22;100.00;99459.53;4937923;29;20028;-92
2023/12/13 05:45:22;;;;;;;1.00;1.00;;;;;;;7.33;100.00;99479.88;4938148;29;20039;-93
2023/12/13 05:47:50;;;;;;;0.60;0.60;;;;;;;7.37;100.00;99486.69;4937827;29;20024;-92
2023/12/13 05:50:19;;;;;;;1.15;1.02;;;;;;;7.29;100.00;99468.81;4938246;29;20113;-92
2023/12/13 05:52:46;;;;;;;1.80;0.82;;;;;;;7.31;100.00;99467.03;4937967;29;20035;-92
2023/12/13 05:55:14;;;;;;;1.23;1.00;;;;;;;7.31;100.00;99481.69;4937761;29;20108;-92
2023/12/13 05:57:46;;;;;;;0.70;0.70;;;;;;;7.25;100.00;99470.59;4937793;29;20112;-93
2023/12/13 06:00:23;;;;;;;2.10;1.00;;;;;;;7.36;100.00;99482.41;4924546;29;20218;-92
2023/12/13 06:06:14;;;;;;;1.60;1.00;;;;;;;7.40;100.00;99491.78;4980886;23;20129;-92
2023/12/13 06:08:40;;;;;;;1.67;1.27;;;;;;;7.34;100.00;99485.03;4976076;28;20038;-92
2023/12/13 06:11:23;;;;;;;3.78;1.27;;;;;;;7.40;100.00;99489.19;4976180;28;20031;-92
2023/12/13 06:13:49;;;;;;;1.55;1.27;;;;;;;7.32;100.00;99481.63;4975811;28;20027;-91
2023/12/13 06:16:17;;;;;;;2.93;1.40;;;;;;;7.39;100.00;99492.66;4976054;28;20041;-90
2023/12/13 06:18:51;;;;;;;3.53;1.60;;;;;;;7.39;100.00;99501.25;4975079;28;20031;-91
2023/12/13 06:21:22;;;;;;;1.50;1.27;;;;;;;7.28;100.00;99481.75;4975989;28;20026;-92
2023/12/13 06:23:57;;;;;;;3.88;1.60;;;;;;;7.25;100.00;99480.94;4975360;28;20571;-93
2023/12/13 06:26:57;;;;;;;3.45;1.42;;;;;;;7.38;100.00;99507.28;4975984;28;20034;-92
2023/12/13 06:29:44;;;;;;;2.08;1.30;;;;;;;7.36;100.00;99508.22;4976008;28;20020;-92
2023/12/13 06:32:12;;;;;;;1.67;1.20;;;;;;;7.28;100.00;99494.66;4956204;29;20043;-91
2023/12/13 06:34:44;;;;;;;0.88;0.88;;;;;;;7.34;100.00;99502.25;4956060;29;20498;-91
2023/12/13 06:37:19;;;;;;;1.42;1.33;;;;;;;7.26;100.00;99490.38;4956127;29;20033;-92
2023/12/13 06:39:50;;;;;;;2.35;1.33;;;;;;;7.20;100.00;99482.78;4956503;29;20110;-91
2023/12/13 06:42:28;;;;;;;1.23;1.08;;;;;;;7.27;100.00;99496.38;4956123;28;20042;-91
2023/12/13 06:45:00;;;;;;;1.20;1.10;;;;;;;7.24;100.00;99494.72;4956478;29;20027;-92
2023/12/13 06:47:25;;;;;;;1.35;1.10;;;;;;;7.30;100.00;99495.47;4955471;29;20513;-91
2023/12/13 06:49:50;;;;;;;1.30;1.03;;;;;;;7.24;100.00;99493.88;4956166;29;20031;-92
2023/12/13 06:52:28;;;;;;;1.73;1.20;;;;;;;7.33;100.00;99510.88;4956182;28;20029;-92
2023/12/13 06:54:53;;;;;;;2.65;1.42;;;;;;;7.25;100.00;99498.16;4955620;28;20038;-91
2023/12/13 06:57:19;;;;;;;2.43;1.50;;;;;;;7.31;100.00;99508.34;4991988;23;20047;-91
2023/12/13 06:59:47;;;;;;;1.90;1.40;;;;;;;7.32;100.00;99511.78;4975663;28;20418;-92
2023/12/13 07:02:51;;;;;;;2.50;1.50;;;;;;;7.20;100.00;99497.41;4976182;28;20271;-90
2023/12/13 07:05:29;;;;;;;2.90;1.50;;;;;;;7.21;100.00;99497.34;4935323;29;20126;-91
2023/12/13 07:08:28;;;;;;;1.50;1.40;;;;;;;7.32;100.00;99516.94;4935601;29;20031;-91
2023/12/13 07:11:13;;;;;;;2.90;1.60;;;;;;;7.17;100.00;99498.34;4935763;29;20043;-90
2023/12/13 07:13:41;;;;;;;2.07;1.60;;;;;;;7.20;100.00;99500.84;4926361;29;20043;-90
2023/12/13 07:16:36;;;;;;;1.83;1.13;;;;;;;7.31;100.00;99518.66;4935129;29;20035;-96
2023/12/13 07:19:05;;;;;;;2.13;1.50;;;;;;;7.30;100.00;99513.53;4924947;29;20035;-90
2023/12/13 07:22:14;;;;;;;3.08;1.55;;;;;;;7.15;100.00;99494.09;4935317;28;20042;-92
2023/12/13 07:24:48;;;;;;;2.45;1.60;;;;;;;7.18;100.00;99502.63;4913962;29;20041;-85
2023/12/13 07:27:14;;;;;;;3.42;1.55;;;;;;;7.21;100.00;99509.44;4914945;29;20533;-84
2023/12/13 07:29:43;;;;;;;2.20;1.70;;;;;;;7.33;100.00;99521.19;4914363;29;20031;-84
2023/12/13 07:32:09;;;;;;;1.52;1.40;;;;;;;7.31;100.00;99523.81;4914895;29;20028;-84
2023/12/13 07:34:36;;;;;;;1.33;1.23;;;;;;;7.32;100.00;99527.25;4952428;28;20035;-84
2023/12/13 07:37:01;;;;;;;3.60;1.80;;;;;;;7.32;100.00;99528.09;4973954;28;20030;-84
2023/12/13 07:39:30;;;;;;;2.13;1.77;;;;;;;7.24;100.00;99514.53;4974559;28;20089;-83
2023/12/13 07:42:03;;;;;;;2.25;1.77;;;;;;;7.29;100.00;99522.16;4974182;28;20046;-83
2023/12/13 07:44:33;;;;;;;1.33;1.23;;;;;;;7.26;100.00;99523.09;4973910;28;20505;-83
2023/12/13 07:46:59;;;;;;;1.88;1.40;;;;;;;7.30;100.00;99522.13;4973682;28;20066;-83
2023/12/13 07:49:24;;;;;;;1.27;1.17;;;;;;;7.29;100.00;99525.56;4974480;28;20023;-83
2023/12/13 07:51:49;;;;;;;1.40;1.27;;;;;;;7.31;100.00;99530.72;4973359;28;20034;-83
2023/12/13 07:54:16;;;;;;;1.67;1.48;;;;;;;7.25;100.00;99511.91;4975032;28;20113;-82
2023/12/13 07:56:45;;;;;;;2.53;1.45;;;;;;;7.32;100.00;99527.25;4979190;28;20101;-80
2023/12/13 07:59:13;;;;;;;1.80;1.30;;;;;;;7.32;100.00;99532.41;4997499;28;20034;-87
2023/12/13 08:01:41;;;;;;;1.40;1.30;;;;;;;7.25;100.00;99527.38;4997623;28;20029;-86
2023/12/13 08:04:09;;;;;;;1.20;1.10;;;;;;;7.31;100.00;99533.31;4997191;28;20022;-88
2023/12/13 08:06:53;;;;;;;1.30;1.20;;;;;;;7.21;100.00;99510.25;4997150;28;20023;-90
2023/12/13 08:12:49;;;;;;;1.40;1.30;;;;;;;7.36;100.00;99531.44;5249263;23;20058;-88
2023/12/13 08:16:24;;;;;;;1.35;1.08;;;;;;;7.35;100.00;99530.63;4957998;28;20043;-87
2023/12/13 08:19:50;;;;;;;1.70;1.40;;;;;;;7.37;100.00;99528.84;4961895;28;20058;-88
2023/12/13 08:22:18;;;;;;;1.42;1.30;;;;;;;7.31;100.00;99518.66;4956843;28;20079;-87
2023/12/13 08:24:44;;;;;;;2.53;1.42;;;;;;;7.24;100.00;99514.53;4971359;28;20034;-86
2023/12/13 08:27:10;;;;;;;1.40;1.30;;;;;;;7.27;100.00;99524.75;4977175;28;20046;-87
2023/12/13 08:29:50;;;;;;;1.90;1.50;;;;;;;7.35;100.00;99537.50;4976306;28;20113;-87
2023/12/13 08:32:17;;;;;;;1.63;1.52;;;;;;;7.25;100.00;99524.81;4976387;28;20027;-88
2023/12/13 08:37:30;;;;;;;1.57;1.40;;;;;;;7.31;100.00;99535.88;4936977;29;20035;-88
2023/12/13 08:40:01;;;;;;;2.55;1.50;;;;;;;7.36;100.00;99547.81;4969941;28;20046;-88
2023/12/13 08:42:26;;;;;;;1.20;1.10;;;;;;;7.31;100.00;99535.88;4978257;28;20026;-89
2023/12/13 08:45:10;;;;;;;1.77;1.50;;;;;;;7.41;100.00;99555.44;4977151;28;20023;-87
2023/12/13 08:47:42;;;;;;;1.83;1.60;;;;;;;7.33;100.00;99534.97;4977770;28;20110;-88
2023/12/13 08:50:24;;;;;;;2.67;1.88;;;;;;;7.48;100.00;99554.41;4976952;28;20031;-90
2023/12/13 08:52:55;;;;;;;4.43;1.90;;;;;;;7.38;100.00;99537.44;4957887;29;20023;-90
2023/12/13 08:55:21;;;;;;;3.78;2.05;;;;;;;7.41;100.00;99543.38;4958392;29;20047;-90
2023/12/13 08:57:46;;;;;;;3.10;1.80;;;;;;;7.44;100.00;99546.75;4957268;28;20058;-89
2023/12/13 09:00:12;;;;;;;4.40;2.13;;;;;;;7.48;100.00;99554.41;4958678;29;20479;-92
2023/12/13 09:06:06;;;;;;;3.40;1.95;;;;;;;7.56;100.00;99556.81;4957072;28;20054;-91
2023/12/13 09:08:32;;;;;;;4.47;2.10;;;;;;;7.63;100.00;99555.75;4957628;29;20043;-91
2023/12/13 09:10:57;;;;;;;4.00;2.17;;;;;;;7.60;100.00;99548.09;4950861;28;20127;-93
2023/12/13 09:13:42;;;;;;;4.00;2.10;;;;;;;7.74;100.00;99563.28;4951486;29;20043;-92
2023/12/13 09:16:16;;;;;;;2.67;1.80;;;;;;;7.69;100.00;99560.81;4957873;29;20015;-92
2023/12/13 09:19:25;;;;;;;1.98;1.70;;;;;;;7.85;100.00;99573.31;4940403;29;20055;-93
2023/12/13 09:22:17;;;;;;;3.33;1.60;;;;;;;7.94;100.00;99573.09;4957761;29;20031;-93
2023/12/13 09:24:45;;;;;;;1.95;1.60;;;;;;;7.92;100.00;99556.81;4941738;29;20073;-91
2023/12/13 09:27:31;;;;;;;2.70;1.40;;;;;;;8.09;100.00;99573.59;4957404;29;20078;-92
2023/12/13 09:29:58;;;;;;;2.58;1.50;;;;;;;8.00;100.00;99554.00;4957397;29;20539;-92
2023/12/13 09:32:42;;;;;;;2.25;1.60;;;;;;;8.05;100.00;99565.09;4957617;29;20106;-91
2023/12/13 09:35:24;;;;;;;1.95;1.42;;;;;;;8.21;100.00;99582.78;4957264;29;20508;-92
2023/12/13 09:38:11;;;;;;;1.75;1.40;;;;;;;8.19;100.00;99583.69;4957105;29;20023;-92
2023/12/13 09:40:51;;;;;;;1.65;1.50;;;;;;;8.12;100.00;99571.78;4957231;29;20074;-93
2023/12/13 09:44:05;;;;;;;4.28;2.10;;;;;;;8.24;100.00;99587.84;4956828;29;20029;-93
2023/12/13 09:50:18;;;;;;;1.90;1.63;;;;;;;8.28;100.00;99595.50;5038545;23;20086;-93
2023/12/13 09:59:29;;;;;;;3.42;1.92;;;;;;;8.22;100.00;99592.25;4975951;28;20443;-93
2023/12/13 10:16:10;;;;;;;1.65;1.55;;;;;;;8.28;100.00;99623.09;4956127;29;20050;-91
2023/12/13 10:28:37;;;;;;;2.03;1.63;;;;;;;8.22;100.00;99629.28;4974769;28;20182;-92
2023/12/13 10:34:33;;;;;;;2.40;1.98;;;;;;;8.06;100.00;99610.72;4974314;28;20050;-92
2023/12/13 10:41:00;;;;;;;2.10;1.90;;;;;;;8.19;100.00;99630.19;4973677;28;20041;-92
2023/12/13 10:53:32;;;;;;;3.17;2.00;;;;;;;8.06;100.00;99595.22;4976249;28;20082;-92
2023/12/13 10:56:19;;;;;;;1.73;1.63;;;;;;;8.19;100.00;99625.03;4976647;28;20026;-92
2023/12/13 10:59:29;;;;;;;1.80;1.50;;;;;;;8.11;100.00;99602.84;4975161;28;20117;-92
2023/12/13 11:01:58;;;;;;;1.67;1.55;;;;;;;8.21;100.00;99606.88;4975140;28;20099;-93
2023/12/13 11:04:40;;;;;;;2.05;1.70;;;;;;;8.16;100.00;99596.66;4974792;28;20034;-93
2023/12/13 11:07:17;;;;;;;2.70;1.83;;;;;;;8.29;100.00;99617.03;4972107;28;20030;-91
2023/12/13 11:10:03;;;;;;;3.20;1.70;;;;;;;8.22;100.00;99613.75;4975220;28;20030;-92
2023/12/13 11:13:08;;;;;;;3.08;1.70;;;;;;;8.40;100.00;99630.53;4975127;28;20026;-92
2023/12/13 11:15:54;;;;;;;2.20;1.77;;;;;;;8.38;100.00;99619.38;4975056;28;20034;-92
2023/12/13 11:18:19;;;;;;;2.60;1.88;;;;;;;8.46;100.00;99634.69;4974580;28;20110;-93
2023/12/13 11:21:05;;;;;;;1.97;1.60;;;;;;;8.39;100.00;99628.00;4975355;28;20122;-93
2023/12/13 11:23:47;;;;;;;2.63;1.70;;;;;;;8.41;100.00;99626.19;4976063;28;20050;-93
2023/12/13 11:26:18;;;;;;;1.70;1.60;;;;;;;8.39;100.00;99620.25;4976148;28;20042;-87
2023/12/13 11:28:52;;;;;;;1.70;1.60;;;;;;;8.39;100.00;99615.91;4974871;28;20027;-93
2023/12/13 11:32:08;;;;;;;4.20;1.90;;;;;;;8.55;100.00;99639.66;4980163;28;20038;-93
2023/12/13 11:35:14;;;;;;;2.70;2.10;;;;;;;8.44;100.00;99626.13;4979605;28;20038;-93
2023/12/13 11:37:54;;;;;;;3.55;2.00;;;;;;;8.47;100.00;99632.09;4979887;28;20039;-93
2023/12/13 11:40:20;;;;;;;2.28;1.85;;;;;;;8.50;100.00;99637.19;4980333;28;20463;-92
2023/12/13 11:43:05;;;;;;;2.47;2.00;;;;;;;8.63;100.00;99649.81;4980101;28;20110;-93
2023/12/13 11:46:04;;;;;;;3.03;2.22;;;;;;;8.54;100.00;99643.13;4979570;28;20031;-93
2023/12/13 11:48:49;;;;;;;3.28;2.00;;;;;;;8.48;100.00;99638.97;4979356;28;20499;-92
2023/12/13 11:51:35;;;;;;;4.32;2.30;;;;;;;8.49;100.00;99632.06;4979873;28;20058;-93
2023/12/13 11:54:27;;;;;;;4.00;2.15;;;;;;;8.57;100.00;99648.22;4979174;28;20018;-93
2023/12/13 11:56:52;;;;;;;2.38;1.90;;;;;;;8.57;100.00;99650.81;4995483;23;20197;-92
2023/12/13 11:59:27;;;;;;;2.33;1.43;;;;;;;8.60;100.00;99647.28;4998526;28;20117;-93
2023/12/13 12:05:16;;;;;;;4.00;1.63;;;;;;;8.63;100.00;99650.66;4997661;28;20088;-93
2023/12/13 12:11:48;;;;;;;1.70;1.60;;;;;;;8.55;100.00;99646.59;4998787;28;20501;-92
2023/12/13 12:14:49;;;;;;;1.50;1.40;;;;;;;8.56;100.00;99640.50;4976795;28;20104;-91
2023/12/13 12:17:30;;;;;;;1.52;1.42;;;;;;;8.68;100.00;99655.69;4956468;28;20102;-91
2023/12/13 12:20:05;;;;;;;2.72;1.70;;;;;;;8.63;100.00;99649.81;4956675;28;20070;-94
2023/12/13 12:22:49;;;;;;;1.83;1.60;;;;;;;8.74;100.00;99667.63;4975624;28;20039;-92
2023/12/13 12:25:58;;;;;;;2.03;1.45;;;;;;;8.80;100.00;99678.66;4975943;28;20023;-91
2023/12/13 12:28:48;;;;;;;1.75;1.65;;;;;;;8.85;100.00;99669.94;4975663;28;20060;-92
2023/12/13 12:31:22;;;;;;;1.60;1.50;;;;;;;8.80;100.00;99662.28;4975354;28;20042;-92
2023/12/13 12:34:34;;;;;;;1.50;1.40;;;;;;;8.80;100.00;99663.13;4975975;28;20046;-91
2023/12/13 12:37:18;;;;;;;2.85;1.98;;;;;;;8.77;100.00;99660.66;4937584;29;20063;-92
2023/12/13 12:39:59;;;;;;;2.58;1.90;;;;;;;8.74;100.00;99650.38;4938154;29;20040;-91
2023/12/13 12:43:18;;;;;;;2.45;1.70;;;;;;;8.92;100.00;99671.44;4973918;28;20046;-91
2023/12/13 12:45:59;;;;;;;2.70;2.00;;;;;;;8.91;100.00;99660.25;4997473;28;20070;-92
2023/12/13 12:48:41;;;;;;;1.92;1.75;;;;;;;8.93;100.00;99657.63;4996606;28;20038;-92
2023/12/13 12:51:21;;;;;;;2.00;1.80;;;;;;;8.90;100.00;99655.13;4997396;28;20088;-92
2023/12/13 12:54:07;;;;;;;2.13;2.00;;;;;;;8.96;100.00;99667.91;4996510;28;20027;-91
2023/12/13 12:56:41;;;;;;;1.93;1.83;;;;;;;8.89;100.00;99656.88;4997210;28;20102;-90
2023/12/13 13:02:04;;;;;;;1.90;1.80;;;;;;;8.85;100.00;99659.56;4977843;28;20053;-92
2023/12/13 13:04:54;;;;;;;3.97;2.25;;;;;;;8.97;100.00;99679.94;5010118;23;20518;-91
2023/12/13 13:07:23;;;;;;;2.97;2.28;;;;;;;8.84;100.00;99661.31;5016495;28;20040;-91
2023/12/13 13:09:48;;;;;;;3.63;2.53;;;;;;;8.82;100.00;99663.09;5015156;28;20049;-85
2023/12/13 13:12:31;;;;;;;2.60;2.17;;;;;;;8.86;100.00;99677.63;5015540;28;20025;-93
2023/12/13 13:15:12;;;;;;;3.13;2.13;;;;;;;8.85;100.00;99673.34;5015493;28;20447;-90
2023/12/13 13:17:40;;;;;;;3.08;1.90;;;;;;;8.89;100.00;99671.56;5014955;28;20022;-91
2023/12/13 13:23:08;;;;;;;2.65;1.92;;;;;;;8.91;100.00;99680.09;5016706;28;20045;-91
2023/12/13 13:25:34;;;;;;;1.92;1.83;;;;;;;8.89;100.00;99676.72;5015542;28;20045;-91
2023/12/13 13:28:18;;;;;;;2.20;1.90;;;;;;;9.00;100.00;99699.72;5015207;28;20474;-90
2023/12/13 13:33:32;;;;;;;1.92;1.73;;;;;;;8.84;100.00;99681.16;5012177;23;20126;-91
2023/12/13 13:35:57;;;;;;;1.98;1.70;;;;;;;8.88;100.00;99686.22;4984715;23;20055;-91
2023/12/13 13:38:23;;;;;;;2.13;1.70;;;;;;;8.92;100.00;99703.38;5213371;23;20058;-90
2023/12/13 13:40:48;;;;;;;1.87;1.70;;;;;;;8.93;100.00;99697.31;4957806;29;20528;-91
2023/12/13 13:43:23;;;;;;;2.00;1.90;;;;;;;8.90;100.00;99701.69;4975575;28;20042;-90
2023/12/13 13:45:50;;;;;;;1.90;1.80;;;;;;;8.93;100.00;99705.06;4977533;28;20031;-90
2023/12/13 13:48:18;;;;;;;2.10;1.83;;;;;;;8.94;100.00;99704.19;4976515;28;20033;-90
2023/12/13 13:51:01;;;;;;;1.52;1.42;;;;;;;8.98;100.00;99702.34;4977393;28;20082;-90
2023/12/13 13:53:30;;;;;;;2.30;1.88;;;;;;;8.88;100.00;99690.56;4976836;28;20023;-90
2023/12/13 13:56:32;;;;;;;1.80;1.70;;;;;;;9.04;100.00;99711.69;4976043;28;20022;-90
2023/12/13 13:59:14;;;;;;;3.47;2.33;;;;;;;8.98;100.00;99704.94;5149964;23;20055;-90
2023/12/13 14:01:55;;;;;;;3.10;2.13;;;;;;;8.98;100.00;99704.06;4957600;29;20030;-89
2023/12/13 14:04:32;;;;;;;2.58;2.10;;;;;;;8.93;100.00;99693.84;4957270;29;20035;-89
2023/12/13 14:07:09;;;;;;;2.40;2.20;;;;;;;8.99;100.00;99700.59;4958155;29;20027;-90
2023/12/13 14:09:40;;;;;;;2.13;1.92;;;;;;;8.94;100.00;99700.72;4907020;29;20043;-90
2023/12/13 14:12:12;;;;;;;2.13;1.90;;;;;;;8.98;100.00;99712.69;4957030;29;20035;-89
2023/12/13 14:14:40;;;;;;;3.60;1.80;;;;;;;8.97;100.00;99705.81;4957122;29;20030;-90
2023/12/13 14:17:19;;;;;;;;;;;;;;;;;;;;;
2023/12/13 14:19:59;;;;;;;;;;;;;;;;;;;;;
2023/12/13 14:22:37;;;;;;;2.03;1.83;;;;;;;8.93;100.00;99732.66;4944670;29;20051;-91
2023/12/13 14:25:44;;;;;;;1.92;1.73;;;;;;;8.95;100.00;99749.00;4941939;29;20043;-90
2023/12/13 14:34:22;;;;;;;2.33;2.00;;;;;;;8.72;100.00;99741.84;4973202;28;20399;-91
2023/12/13 14:37:09;;;;;;;1.92;1.70;;;;;;;8.72;100.00;99747.84;4968130;28;20043;-90
2023/12/13 14:39:35;;;;;;;2.47;1.80;;;;;;;8.72;100.00;99763.38;4968224;28;20042;-91
2023/12/13 14:42:07;;;;;;;1.83;1.73;;;;;;;8.57;100.00;99743.91;4974233;28;20506;-91